x

Tanner Bank - 121nm West Of San Diego, Ca (46047) Wave Buoy

1:50am - Sat 28th Mar 2015 All times are PDT. -7 hours from GMT.

  • Sig Wave height 6.2ft
  • Swell Direction
  • Peak Period 15s
  • Average Period 6s
  • Wind
    18mph, 20mph gusts
  • Sea Temp 61°f
  • 空気 Temp 59°f
  • Sea Pressure 1018.8mb
  • Tanner Bank - 121nm West Of San Diego, Ca
  • Tanner Bank - 121nm West Of San Diego, Ca

More Historic Weather Station data

Upgrade to MSW Pro to gain access to the past 30 days of data for over 8000 Wavebouys and Weather Stations around the globe.

Join Pro

Comparision Forecast

View Surf forecast
   
Sat 03/28 1:50am 6ft 15s 6s 18 20 mph 1018.8mb 61f 59f
12:50am 6ft 11s 6s 18 20 mph 1018.6mb 61f 59f
Fri 03/27 11:50pm 6ft 15s 6s 16 18 mph 1018.8mb 61f 59f
10:50pm 6ft 15s 6s 16 20 mph 1018.9mb 60f 58f
9:50pm 5.5ft 11s 6s 20 25 mph 1018.7mb 61f 58f
8:50pm 6ft 15s 6s 20 25 mph 1018.1mb 60f 58f
7:50pm 6ft 11s 6s 18 25 mph 1017.4mb 61f 58f
6:50pm 5.5ft 11s 6s 18 22 mph 1017.7mb 61f 58f
5:50pm 5ft 11s 6s 16 20 mph 1017.4mb 61f 58f
4:50pm 5.5ft 11s 6s 18 20 mph 1017.5mb 61f 58f
3:50pm 5ft 12s 6s 18 22 mph 1017.6mb 61f 59f
2:50pm 5ft 12s 6s 18 22 mph 1018.5mb 61f 59f
1:50pm 4.5ft 16s 6s 18 22 mph 1018.9mb 61f 59f
12:50pm 5ft 12s 7s 16 20 mph 1019.5mb 61f 58f
11:50am 5ft 11s 7s 11 13 mph 1019.7mb 61f 57f
10:50am 5ft 10s 7s 11 13 mph 1019.7mb 61f 57f
9:50am 5ft 16s 7s 11 16 mph 1019.4mb 61f 57f
8:50am 5.5ft 11s 7s 13 16 mph 1019mb 61f 57f
7:50am 5ft 11s 7s 13 18 mph 1018.5mb 61f 57f
6:50am 5ft 11s 7s 11 16 mph 1018mb 61f 57f
5:50am 5ft 11s 8s 16 18 mph 1017.5mb 61f 60f
4:50am 4.5ft 15s 8s 13 16 mph 1017.5mb 61f 60f
3:50am 4.5ft 16s 8s 11
mph
1017.6mb 62f 61f
2:50am 5ft 11s 8s 9 11 mph 1017.8mb 61f 61f
1:50am 5ft 16s 8s 11 13 mph 1018.1mb 61f 61f
12:50am 5ft 16s 8s 9 11 mph 1017.9mb 61f 61f
Thu 03/26 11:50pm 5ft 11s 8s 9 11 mph 1018mb 62f 62f
10:50pm 5ft 11s 8s 9 11 mph 1017.9mb 62f 62f
9:50pm 5ft 11s 8s 9
mph
1017.5mb 62f 62f
8:50pm 5ft 8s 7s 7
mph
1017.1mb 62f 62f
7:50pm 5ft 10s 8s 7
mph
1016.8mb 62f 62f
6:50pm 5.5ft 16s 8s 9 11 mph 1016.5mb 62f 63f
5:50pm 5ft 10s 8s 7 9 mph 1016.7mb 62f 63f
4:50pm 5ft 11s 8s 7
mph
1016.8mb 62f 63f
3:50pm 6ft 11s 8s 9 11 mph 1016.7mb 62f 63f
2:50pm 5.5ft 11s 8s 9
mph
1017.2mb 62f 62f
1:50pm 5.5ft 11s 7s 9
mph
1018.1mb 62f 62f
12:50pm 5ft 11s 7s 9
mph
1018.8mb 62f 62f
11:50am 5.5ft 11s 7s 7 9 mph 1019.2mb 61f 61f
10:50am 5.5ft 11s 7s 7 9 mph 1019.3mb 61f 61f
9:50am 6ft 11s 7s 7
mph
1019.1mb 60f 61f
8:50am 6ft 11s 7s 4 7 mph 1018.2mb 60f 61f
7:50am 6ft 12s 7s 7 9 mph 1017.9mb 60f 60f
6:50am 6ft 12s 7s 9
mph
1017.4mb 60f 60f
5:50am 5.5ft 11s 7s 9 11 mph 1017.1mb 60f 60f
4:50am 6ft 11s 7s 9 11 mph 1017.1mb 60f 60f
3:50am 6.5ft 11s 7s 9 11 mph 1017.2mb 60f 60f
2:50am 6ft 11s 7s 7 9 mph 1017.4mb 60f 60f
1:50am 6.5ft 11s 7s 7 9 mph 1017.6mb 60f 60f
12:50am 7ft 12s 7s 9 11 mph 1017.5mb 60f 60f
Wed 03/25 11:50pm 7ft 11s 7s 13 16 mph 1017.6mb 60f 60f
10:50pm 7ft 12s 6s 16 20 mph 1017.6mb 60f 60f
9:50pm 7ft 13s 6s 18 22 mph 1017.4mb 60f 60f
8:50pm 7ft 11s 6s 18 22 mph 1016.9mb 60f 61f
7:50pm 7ft 12s 6s 18 22 mph 1016.7mb 60f 60f
6:50pm 7.5ft 12s 6s 20 22 mph 1016.5mb 60f 61f
5:50pm 8ft 11s 6s 20 22 mph 1016.6mb 60f 61f
4:50pm 7.5ft 8s 6s 20 25 mph 1016.9mb 61f 61f
3:50pm 7.5ft 11s 6s 18 22 mph 1017.4mb 61f 61f
2:50pm 7.5ft 13s 6s 18 20 mph 1017.8mb 61f 61f
1:50pm 8ft 12s 6s 18 22 mph 1018.2mb 61f 61f
12:50pm 8ft 12s 6s 20 22 mph 1018.7mb 61f 61f
11:50am 8ft 9s 6s 22 25 mph 1019mb 60f 61f
10:50am 8ft 8s 6s 22 25 mph 1019mb 60f 61f
9:50am 8ft 9s 6s 22 27 mph 1018.7mb 60f 61f
8:50am 9ft 10s 7s 20 25 mph 1018.1mb 60f 61f
7:50am 9ft 12s 7s 20 25 mph 1017.6mb 60f 60f
6:50am 10ft 9s 7s 22 27 mph 1017.5mb 60f 61f
5:50am 9.5ft 11s 7s 20 27 mph 1016.9mb 60f 61f
4:50am 10ft 8s 7s 16 20 mph 1017.1mb 60f 60f
3:50am 11ft 8s 7s 18 22 mph 1017.1mb 60f 60f
2:50am 12ft 9s 7s 25 29 mph 1017mb 60f 60f
1:50am 11ft 8s 7s 25 29 mph 1017.4mb 60f 60f
12:50am 11ft 8s 6s 25 31 mph 1017.6mb 60f 60f
Tue 03/24 11:50pm  -   -   -  29 34 mph 1017.2mb 60f 60f
10:50pm 10.5ft 8s 6s 27 34 mph 1017.6mb 60f 61f
9:50pm 11.5ft 8s 7s 29 34 mph 1018.1mb 60f 61f
8:50pm 11ft 8s 6s 29 38 mph 1017.9mb 60f 61f
7:50pm 11.5ft 13s 7s 25 29 mph 1017.7mb 60f 61f
6:50pm 10ft 8s 6s 27 31 mph 1017.4mb 61f 62f
5:50pm 10.5ft 8s 6s 27 31 mph 1017.1mb 61f 62f
4:50pm 11ft 9s 6s 27 31 mph 1017.6mb 61f 62f
3:50pm 11ft 13s 7s 27 34 mph 1018mb 61f 62f
2:50pm 9.5ft 12s 6s 27 31 mph 1018.4mb 61f 62f
1:50pm 9.5ft 13s 7s 25 29 mph 1019mb 61f 61f
12:50pm 9ft 14s 7s 25 31 mph 1019.5mb 61f 61f
11:50am  -   -   -  25 29 mph 1020.2mb 61f 61f
10:50am 9ft 13s 7s 25 29 mph 1020.5mb 61f 61f
9:50am 9ft 13s 7s 22 29 mph 1020.4mb 61f 61f